Darstellungsparameter: Aktuell verwendete Einstellungen:
Skalierung der Graphiken ... ?
xyx+y,   Skalierungsfaktor:      Skalierung: Modus: x, Faktor: 1
Darstellungszeitraum ... ?
Vom - - bis: - -   Zeitraum: 15.07.2016 - 14.08.2016
Min/Max/Avg-Anzeige ... ?
Zeige MMA aktuell
Zeige MMA Monat
Zeige MMA alles
Zeige --A aktuell
Zeige --A Monat
Zeige --A alles
Keine MMA-Anzeige
MMA:
Keine MMA-Graphiken
MMA-Basis: 15.07.2016 - 14.08.2016
Quicknavigation für Darstellung... ?
Tage:      1T, 2T, 3T, 5T -1T -2T -3T -5T +1T +2T +3T +5T
Wochen: 1W, 2W, 3W -1W -2W -3W +1W +2W +3W
Monate: 1M, 3M, 6M -1M -3M -6M +1M +3M +6M
Jahre:    1J, 3J, 5J, 10J -1J -3J -5J -10J +1J +3J +5J +10J
Nutze für die Darstellung ... ?
Originaldaten oder ...
Mittelwerte Minima Maxima auf...
Stundenbasis Tagesbasis Wochenbasis
Monatsbasis Jahresbasis      Datenbasis: Mittelwerte auf Stundenbasis
Darstellen als:
Statistik (Auto) Statistik J:M      Darstellung:
Zur Graphik,    zurück zur Übersicht aller Sensoren.
 
Tabellarische Datenbersicht: ?
 
Sensor: Nr:Datum:Temp:Feuchte:Taupunkt:
Aussen-T/F 1 15-07-2016 00:00:00 13.4 C 80.8333 % 10.18 C
2 15-07-2016 01:00:00 12.95 C 84.3333 % 10.37 C
3 15-07-2016 02:00:00 12.90833 C 86.4167 % 10.7 C
4 15-07-2016 03:00:00 12.15 C 87.8333 % 10.2 C
5 15-07-2016 04:00:00 11.79167 C 88.6667 % 9.98 C
6 15-07-2016 05:00:00 11.99167 C 87.8333 % 10.04 C
7 15-07-2016 06:00:00 12.275 C 87.5000 % 10.26 C
8 15-07-2016 07:00:00 12.50833 C 85.9167 % 10.22 C
9 15-07-2016 08:00:00 13.04167 C 85.7500 % 10.71 C
10 15-07-2016 09:00:00 14.39167 C 81.4167 % 11.25 C
11 15-07-2016 10:00:00 15.15 C 77.0000 % 11.15 C
12 15-07-2016 11:00:00 16.45 C 69.1667 % 10.79 C
13 15-07-2016 12:00:00 17.74167 C 62.7500 % 10.55 C
14 15-07-2016 13:00:00 18.48333 C 60.9167 % 10.81 C
15 15-07-2016 14:00:00 19.26667 C 59.2500 % 11.13 C
16 15-07-2016 15:00:00 19.95833 C 60.5000 % 12.09 C
17 15-07-2016 16:00:00 20.59167 C 58.9167 % 12.28 C
18 15-07-2016 17:00:00 21.11667 C 61.7500 % 13.49 C
19 15-07-2016 18:00:00 22.125 C 49.6667 % 11.12 C
20 15-07-2016 19:00:00 22.375 C 49.6667 % 11.35 C
21 15-07-2016 20:00:00 19.70833 C 66.3333 % 13.26 C
22 15-07-2016 21:00:00 16.86667 C 76.1667 % 12.65 C
23 15-07-2016 22:00:00 15.15 C 81.6667 % 12.04 C
24 15-07-2016 23:00:00 13.58333 C 86.7500 % 11.42 C
25 16-07-2016 00:00:00 12.66667 C 88.9167 % 10.89 C
Sensor: Nr:Datum:Temp:Feuchte:Taupunkt:
Aussen-T/F 26 16-07-2016 01:00:00 12.125 C 90.9167 % 10.69 C
27 16-07-2016 02:00:00 11.6 C 92.0000 % 10.35 C
28 16-07-2016 03:00:00 11.23333 C 93.2500 % 10.18 C
29 16-07-2016 04:00:00 11.6 C 94.0000 % 10.67 C
30 16-07-2016 05:00:00 11.88333 C 93.5000 % 10.87 C
31 16-07-2016 06:00:00 12.15 C 93.2500 % 11.09 C
32 16-07-2016 07:00:00 13.125 C 90.9167 % 11.68 C
33 16-07-2016 08:00:00 14.325 C 87.9167 % 12.35 C
34 16-07-2016 09:00:00 15.81667 C 83.4167 % 13.01 C
35 16-07-2016 10:00:00 17.38333 C 78.0833 % 13.53 C
36 16-07-2016 11:00:00 18.73333 C 75.5000 % 14.32 C
37 16-07-2016 12:00:00 20.075 C 67.0000 % 13.76 C
38 16-07-2016 13:00:00 21.23333 C 66.5000 % 14.75 C
39 16-07-2016 14:00:00 21.25 C 69.5000 % 15.45 C
40 16-07-2016 15:00:00 21.65833 C 69.2500 % 15.78 C
41 16-07-2016 16:00:00 22.225 C 73.5833 % 17.28 C
42 16-07-2016 17:00:00 21.55 C 78.9167 % 17.74 C
43 16-07-2016 18:00:00 21.15 C 80.5000 % 17.66 C
44 16-07-2016 19:00:00 20.525 C 82.8333 % 17.51 C
45 16-07-2016 20:00:00 20.30833 C 82.3333 % 17.2 C
46 16-07-2016 21:00:00 19.1 C 84.1667 % 16.36 C
47 16-07-2016 22:00:00 18.35833 C 86.8333 % 16.13 C
48 16-07-2016 23:00:00 17.575 C 90.0000 % 15.92 C
49 17-07-2016 00:00:00 16.48333 C 92.1667 % 15.21 C
50 17-07-2016 01:00:00 16.56667 C 94.0000 % 15.6 C
Sensor: Nr:Datum:Temp:Feuchte:Taupunkt:
Aussen-T/F 51 17-07-2016 02:00:00 17.04167 C 93.8333 % 16.04 C
52 17-07-2016 03:00:00 17.21667 C 93.0000 % 16.07 C
53 17-07-2016 04:00:00 17.075 C 93.6667 % 16.05 C
54 17-07-2016 05:00:00 16.48333 C 93.8333 % 15.49 C
55 17-07-2016 06:00:00 16.83333 C 95.0000 % 16.03 C
56 17-07-2016 07:00:00 17.56667 C 94.5833 % 16.69 C
57 17-07-2016 08:00:00 18.78333 C 91.2500 % 17.33 C
58 17-07-2016 09:00:00 20.25 C 86.6667 % 17.95 C
59 17-07-2016 10:00:00 22.40833 C 78.1667 % 18.42 C
60 17-07-2016 11:00:00 23.7 C 71.9167 % 18.33 C
61 17-07-2016 12:00:00 24.35 C 74.3333 % 19.49 C
62 17-07-2016 13:00:00 24.38333 C 73.5833 % 19.36 C
63 17-07-2016 14:00:00 25.38333 C 74.6667 % 20.55 C
64 17-07-2016 15:00:00 25.53333 C 70.4167 % 19.75 C
65 17-07-2016 16:00:00 26.575 C 61.0833 % 18.46 C
66 17-07-2016 17:00:00 26.34167 C 59.4167 % 17.8 C
67 17-07-2016 18:00:00 25.89167 C 59.1667 % 17.31 C
68 17-07-2016 19:00:00 25.15 C 63.3333 % 17.69 C
69 17-07-2016 20:00:00 24.8 C 66.0833 % 18.03 C
70 17-07-2016 21:00:00 22.475 C 77.7500 % 18.4 C
71 17-07-2016 22:00:00 20.85833 C 84.7500 % 18.2 C
72 17-07-2016 23:00:00 20.19167 C 87.2500 % 18 C
73 18-07-2016 00:00:00 19.43333 C 89.0833 % 17.59 C
74 18-07-2016 01:00:00 18.75833 C 91.3333 % 17.32 C
75 18-07-2016 02:00:00 18.11667 C 92.4167 % 16.87 C
Sensor: Nr:Datum:Temp:Feuchte:Taupunkt:
Aussen-T/F 76 18-07-2016 03:00:00 17.63333 C 93.3333 % 16.54 C
77 18-07-2016 04:00:00 17.34167 C 93.9167 % 16.35 C
78 18-07-2016 05:00:00 16.58333 C 93.8333 % 15.59 C
79 18-07-2016 06:00:00 16.26667 C 94.7500 % 15.42 C
80 18-07-2016 07:00:00 16.35 C 95.0000 % 15.55 C
81 18-07-2016 08:00:00 16.95833 C 95.4167 % 16.22 C
82 18-07-2016 09:00:00 18.11667 C 95.4167 % 17.37 C
83 18-07-2016 10:00:00 20.675 C 87.4167 % 18.51 C
84 18-07-2016 11:00:00 23.03333 C 73.8333 % 18.11 C
85 18-07-2016 12:00:00 23.84167 C 66.7500 % 17.28 C
86 18-07-2016 13:00:00 24.39167 C 63.7500 % 17.08 C
87 18-07-2016 14:00:00 25.325 C 53.5000 % 15.2 C
88 18-07-2016 15:00:00 27.06667 C 50.5000 % 15.91 C
89 18-07-2016 16:00:00 29 C 44.7500 % 15.78 C
90 18-07-2016 17:00:00 29.81667 C 44.7500 % 16.51 C
91 18-07-2016 18:00:00 30.10833 C 43.3333 % 16.27 C
92 18-07-2016 19:00:00 29.23333 C 51.1667 % 18.1 C
93 18-07-2016 20:00:00 25.39167 C 64.0833 % 18.11 C
94 18-07-2016 21:00:00 22.30833 C 71.0000 % 16.8 C
95 18-07-2016 22:00:00 20.10833 C 77.8333 % 16.12 C
96 18-07-2016 23:00:00 18.55833 C 82.2500 % 15.47 C
97 19-07-2016 00:00:00 17.49167 C 85.7500 % 15.08 C
98 19-07-2016 01:00:00 16.675 C 88.4167 % 14.75 C
99 19-07-2016 02:00:00 16.1 C 90.3333 % 14.52 C
100 19-07-2016 03:00:00 15.475 C 92.4167 % 14.25 C
Sensor: Nr:Datum:Temp:Feuchte:Taupunkt:
Aussen-T/F 101 19-07-2016 04:00:00 15.04167 C 93.2500 % 13.96 C
102 19-07-2016 05:00:00 14.61667 C 94.0000 % 13.66 C
103 19-07-2016 06:00:00 14.61667 C 94.8333 % 13.8 C
104 19-07-2016 07:00:00 14.98333 C 95.0000 % 14.19 C
105 19-07-2016 08:00:00 15.89167 C 95.0000 % 15.09 C
106 19-07-2016 09:00:00 17.25833 C 94.7500 % 16.41 C
107 19-07-2016 10:00:00 19.65 C 91.5833 % 18.24 C
108 19-07-2016 11:00:00 22.2 C 85.0833 % 19.57 C
109 19-07-2016 12:00:00 24.98333 C 68.4167 % 18.76 C
110 19-07-2016 13:00:00 26.69167 C 57.9167 % 17.72 C
111 19-07-2016 14:00:00 26.29167 C 67.6667 % 19.83 C
112 19-07-2016 15:00:00 26.46667 C 69.2500 % 20.37 C
113 19-07-2016 16:00:00 29.76667 C 62.8333 % 21.92 C
114 19-07-2016 17:00:00 31.61667 C 56.0000 % 21.76 C
115 19-07-2016 18:00:00 32.075 C 53.1667 % 21.33 C
116 19-07-2016 19:00:00 29.95 C 58.2500 % 20.85 C
117 19-07-2016 20:00:00 26.71667 C 62.3333 % 18.91 C
118 19-07-2016 21:00:00 23.65 C 67.6667 % 17.32 C
119 19-07-2016 22:00:00 21.04167 C 73.5000 % 16.12 C
120 19-07-2016 23:00:00 19.55 C 78.4167 % 15.69 C
121 20-07-2016 00:00:00 18.25 C 83.7500 % 15.45 C
122 20-07-2016 01:00:00 17.325 C 87.4167 % 15.21 C
123 20-07-2016 02:00:00 16.71667 C 89.3333 % 14.95 C
124 20-07-2016 03:00:00 16.075 C 91.1667 % 14.63 C
125 20-07-2016 04:00:00 15.50833 C 92.5000 % 14.3 C
Sensor: Nr:Datum:Temp:Feuchte:Taupunkt:
Aussen-T/F 126 20-07-2016 05:00:00 15.01667 C 93.4167 % 13.96 C
127 20-07-2016 06:00:00 14.775 C 94.0833 % 13.83 C
128 20-07-2016 07:00:00 15.2 C 95.0000 % 14.4 C
129 20-07-2016 08:00:00 16.14167 C 95.3333 % 15.39 C
130 20-07-2016 09:00:00 17.85833 C 95.0000 % 17.05 C
131 20-07-2016 10:00:00 20.58333 C 90.0000 % 18.88 C
132 20-07-2016 11:00:00 23.99167 C 78.5000 % 20.02 C
133 20-07-2016 12:00:00 27.03333 C 65.8333 % 20.09 C
134 20-07-2016 13:00:00 29.05 C 58.2500 % 20.01 C
135 20-07-2016 14:00:00 30.20833 C 55.5000 % 20.31 C
136 20-07-2016 15:00:00 32.19167 C 50.1667 % 20.5 C
137 20-07-2016 16:00:00 34.70833 C 45.3333 % 21.14 C
138 20-07-2016 17:00:00 34.75 C 51.2500 % 23.19 C
139 20-07-2016 18:00:00 32.93333 C 54.2500 % 22.46 C
140 20-07-2016 19:00:00 30.2 C 56.7500 % 20.66 C
141 20-07-2016 20:00:00 26.63333 C 63.8333 % 19.22 C
142 20-07-2016 21:00:00 25.88333 C 67.0833 % 19.3 C
143 20-07-2016 22:00:00 25.25 C 70.0833 % 19.4 C
144 20-07-2016 23:00:00 23.9 C 73.2500 % 18.82 C
145 21-07-2016 00:00:00 23.5 C 74.0000 % 18.6 C
146 21-07-2016 01:00:00 22.8 C 77.2500 % 18.61 C
147 21-07-2016 02:00:00 22.39167 C 77.8333 % 18.33 C
148 21-07-2016 03:00:00 22.5 C 77.0833 % 18.28 C
149 21-07-2016 04:00:00 22.64167 C 76.9167 % 18.39 C
150 21-07-2016 05:00:00 21.76667 C 79.8333 % 18.13 C
Sensor: Nr:Datum:Temp:Feuchte:Taupunkt:
Aussen-T/F 151 21-07-2016 06:00:00 20.55833 C 84.5833 % 17.87 C
152 21-07-2016 07:00:00 20.075 C 86.2500 % 17.71 C
153 21-07-2016 08:00:00 19.28333 C 91.5833 % 17.88 C
154 21-07-2016 09:00:00 19.21667 C 94.4167 % 18.3 C
155 21-07-2016 10:00:00 19.85 C 95.0000 % 19.02 C
156 21-07-2016 11:00:00 20.69167 C 94.6667 % 19.8 C
157 21-07-2016 12:00:00 22.24167 C 90.8333 % 20.67 C
158 21-07-2016 13:00:00 23.34167 C 83.3333 % 20.35 C
159 21-07-2016 14:00:00 24.89167 C 75.2500 % 20.21 C
160 21-07-2016 15:00:00 25.84167 C 77.0833 % 21.52 C
161 21-07-2016 16:00:00 23.1 C 83.3333 % 20.12 C
162 21-07-2016 17:00:00 20.71667 C 90.5833 % 19.12 C
163 21-07-2016 18:00:00 19.76667 C 93.5833 % 18.7 C
164 21-07-2016 19:00:00 19.6 C 94.5833 % 18.71 C
165 21-07-2016 20:00:00 19.00833 C 94.8333 % 18.16 C
166 21-07-2016 21:00:00 18.91667 C 95.2500 % 18.14 C
167 21-07-2016 22:00:00 18.64167 C 95.8333 % 17.96 C
168 21-07-2016 23:00:00 18.4 C 96.0000 % 17.75 C
169 22-07-2016 00:00:00 18.24167 C 96.0000 % 17.59 C
170 22-07-2016 01:00:00 18.05 C 96.0000 % 17.4 C
171 22-07-2016 02:00:00 17.95 C 96.1667 % 17.33 C
172 22-07-2016 03:00:00 17.35 C 96.0000 % 16.71 C
173 22-07-2016 04:00:00 17.00833 C 96.3333 % 16.42 C
174 22-07-2016 05:00:00 16.71667 C 96.5000 % 16.16 C
175 22-07-2016 06:00:00 16.675 C 96.9167 % 16.18 C
Sensor: Nr:Datum:Temp:Feuchte:Taupunkt:
Aussen-T/F 176 22-07-2016 07:00:00 17.34167 C 97.0000 % 16.86 C
177 22-07-2016 08:00:00 17.58333 C 97.0000 % 17.1 C
178 22-07-2016 09:00:00 18.20833 C 97.0000 % 17.72 C
179 22-07-2016 10:00:00 19.36667 C 97.0000 % 18.88 C
180 22-07-2016 11:00:00 21.03333 C 96.5833 % 20.47 C
181 22-07-2016 12:00:00 23.06667 C 92.4167 % 21.77 C
182 22-07-2016 13:00:00 24.75833 C 85.3333 % 22.13 C
183 22-07-2016 14:00:00 26.55 C 73.3333 % 21.38 C
184 22-07-2016 15:00:00 27.55 C 73.6667 % 22.42 C
185 22-07-2016 16:00:00 28.64167 C 66.0000 % 21.66 C
186 22-07-2016 17:00:00 27.01667 C 66.5000 % 20.24 C
187 22-07-2016 18:00:00 25.2 C 77.1667 % 20.91 C
188 22-07-2016 19:00:00 22.74167 C 84.0000 % 19.9 C
189 22-07-2016 20:00:00 21.64167 C 87.5000 % 19.48 C
190 22-07-2016 21:00:00 20.71667 C 88.0000 % 18.66 C
191 22-07-2016 22:00:00 19.98333 C 88.6667 % 18.05 C
192 22-07-2016 23:00:00 19.84167 C 89.3333 % 18.03 C
193 23-07-2016 00:00:00 19.475 C 90.8333 % 17.94 C
194 23-07-2016 01:00:00 19.16667 C 92.4167 % 17.91 C
195 23-07-2016 02:00:00 18.90833 C 93.0000 % 17.75 C
196 23-07-2016 03:00:00 18.60833 C 93.0000 % 17.45 C
197 23-07-2016 04:00:00 18.375 C 93.2500 % 17.27 C
198 23-07-2016 05:00:00 18.33333 C 94.1667 % 17.38 C
199 23-07-2016 06:00:00 18.35833 C 95.0000 % 17.54 C
200 23-07-2016 07:00:00 18.69167 C 95.4167 % 17.94 C
Sensor: Nr:Datum:Temp:Feuchte:Taupunkt:
Aussen-T/F 201 23-07-2016 08:00:00 19.15833 C 95.4167 % 18.41 C
202 23-07-2016 09:00:00 19.925 C 94.7500 % 19.06 C
203 23-07-2016 10:00:00 20.625 C 92.5833 % 19.38 C
204 23-07-2016 11:00:00 21.11667 C 91.3333 % 19.65 C
205 23-07-2016 12:00:00 22 C 86.5833 % 19.66 C
206 23-07-2016 13:00:00 22.98333 C 81.7500 % 19.69 C
207 23-07-2016 14:00:00 24.1 C 77.0000 % 19.81 C
208 23-07-2016 15:00:00 23.44167 C 79.6667 % 19.72 C
209 23-07-2016 16:00:00 22.61667 C 85.0833 % 19.98 C
210 23-07-2016 17:00:00 20.60833 C 92.6667 % 19.38 C
211 23-07-2016 18:00:00 20.78333 C 94.7500 % 19.91 C
212 23-07-2016 19:00:00 21.075 C 95.0000 % 20.24 C
213 23-07-2016 20:00:00 20.64167 C 95.0833 % 19.83 C
214 23-07-2016 21:00:00 20.25833 C 95.5833 % 19.53 C
215 23-07-2016 22:00:00 19.625 C 95.9167 % 18.96 C
216 23-07-2016 23:00:00 19.36667 C 96.0000 % 18.71 C
217 24-07-2016 00:00:00 19.2 C 96.0000 % 18.55 C
218 24-07-2016 01:00:00 19.13333 C 96.4167 % 18.55 C
219 24-07-2016 02:00:00 19.1 C 96.6667 % 18.56 C
220 24-07-2016 03:00:00 19.10833 C 97.0000 % 18.62 C
221 24-07-2016 04:00:00 19.03333 C 97.0000 % 18.55 C
222 24-07-2016 05:00:00 18.60833 C 96.8333 % 18.1 C
223 24-07-2016 06:00:00 18.66667 C 97.0000 % 18.18 C
224 24-07-2016 07:00:00 19.01667 C 97.0000 % 18.53 C
225 24-07-2016 08:00:00 19.41667 C 97.0000 % 18.93 C
Sensor: Nr:Datum:Temp:Feuchte:Taupunkt:
Aussen-T/F 226 24-07-2016 09:00:00 19.70833 C 96.8333 % 19.19 C
227 24-07-2016 10:00:00 20.34167 C 93.8333 % 19.31 C
228 24-07-2016 11:00:00 21.51667 C 89.6667 % 19.75 C
229 24-07-2016 12:00:00 23.06667 C 81.5833 % 19.74 C
230 24-07-2016 13:00:00 23.76667 C 80.0833 % 20.12 C
231 24-07-2016 14:00:00 24.55833 C 75.4167 % 19.92 C
232 24-07-2016 15:00:00 26.15833 C 67.6667 % 19.7 C
233 24-07-2016 16:00:00 27.88333 C 63.5000 % 20.31 C
234 24-07-2016 17:00:00 28.375 C 60.8333 % 20.08 C
235 24-07-2016 18:00:00 28.35 C 61.5000 % 20.23 C
236 24-07-2016 19:00:00 27.69167 C 67.5833 % 21.14 C
237 24-07-2016 20:00:00 24.725 C 78.3333 % 20.7 C
238 24-07-2016 21:00:00 21.95 C 84.2500 % 19.17 C
239 24-07-2016 22:00:00 20.7 C 88.0833 % 18.66 C
240 24-07-2016 23:00:00 20.18333 C 90.9167 % 18.65 C
241 25-07-2016 00:00:00 19.78333 C 91.8333 % 18.42 C
242 25-07-2016 01:00:00 19.65833 C 91.9167 % 18.31 C
243 25-07-2016 02:00:00 18.81667 C 92.4167 % 17.56 C
244 25-07-2016 03:00:00 18.33333 C 93.9167 % 17.34 C
245 25-07-2016 04:00:00 17.88333 C 94.4167 % 16.97 C
246 25-07-2016 05:00:00 17.575 C 95.0000 % 16.76 C
247 25-07-2016 06:00:00 17.39167 C 95.2500 % 16.62 C
248 25-07-2016 07:00:00 18.18333 C 95.7500 % 17.49 C
249 25-07-2016 08:00:00 19.15833 C 94.4167 % 18.24 C
250 25-07-2016 09:00:00 20.20833 C 90.5833 % 18.62 C
Sensor: Nr:Datum:Temp:Feuchte:Taupunkt:
Aussen-T/F 251 25-07-2016 10:00:00 21.71667 C 81.4167 % 18.39 C
252 25-07-2016 11:00:00 23.11667 C 72.7500 % 17.96 C
253 25-07-2016 12:00:00 24.08333 C 70.1667 % 18.31 C
254 25-07-2016 13:00:00 24.41667 C 73.1667 % 19.3 C
255 25-07-2016 14:00:00 25.15 C 69.3333 % 19.14 C
256 25-07-2016 15:00:00 26.025 C 66.0833 % 19.2 C
257 25-07-2016 16:00:00 26.40833 C 61.5833 % 18.43 C
258 25-07-2016 17:00:00 25.93333 C 66.1667 % 19.13 C
259 25-07-2016 18:00:00 24.93333 C 74.3333 % 20.05 C
260 25-07-2016 19:00:00 25.05833 C 73.8333 % 20.06 C
261 25-07-2016 20:00:00 25.28333 C 66.8333 % 18.67 C
262 25-07-2016 21:00:00 22.55833 C 80.3333 % 19 C
263 25-07-2016 22:00:00 21.55833 C 83.7500 % 18.69 C
264 25-07-2016 23:00:00 20.425 C 85.3333 % 17.88 C
265 26-07-2016 00:00:00 19.525 C 88.4167 % 17.56 C
266 26-07-2016 01:00:00 18.71667 C 91.3333 % 17.27 C
267 26-07-2016 02:00:00 18.15833 C 93.0000 % 17.01 C
268 26-07-2016 03:00:00 18.025 C 93.4167 % 16.95 C
269 26-07-2016 04:00:00 17.89167 C 94.0000 % 16.91 C
270 26-07-2016 05:00:00 17.55 C 94.0833 % 16.59 C
271 26-07-2016 06:00:00 17.59167 C 95.0000 % 16.78 C
272 26-07-2016 07:00:00 18.49167 C 94.9167 % 17.66 C
273 26-07-2016 08:00:00 19.54167 C 91.5000 % 18.12 C
274 26-07-2016 09:00:00 20.63333 C 88.0833 % 18.59 C
275 26-07-2016 10:00:00 20.7 C 87.4167 % 18.53 C
Sensor: Nr:Datum:Temp:Feuchte:Taupunkt:
Aussen-T/F 276 26-07-2016 11:00:00 20.85833 C 86.6667 % 18.55 C
277 26-07-2016 12:00:00 22.19167 C 82.0000 % 18.97 C
278 26-07-2016 13:00:00 23.28333 C 78.5000 % 19.33 C
279 26-07-2016 14:00:00 24.18333 C 75.0000 % 19.47 C
280 26-07-2016 15:00:00 24.15833 C 73.2500 % 19.07 C
281 26-07-2016 16:00:00 23.04167 C 77.0000 % 18.79 C
282 26-07-2016 17:00:00 21.73333 C 80.0833 % 18.15 C
283 26-07-2016 18:00:00 22.625 C 76.5000 % 18.28 C
284 26-07-2016 19:00:00 21.65833 C 79.6667 % 17.99 C
285 26-07-2016 20:00:00 20.825 C 81.2500 % 17.49 C
286 26-07-2016 21:00:00 18.875 C 87.1667 % 16.69 C
287 26-07-2016 22:00:00 17.44167 C 91.1667 % 15.99 C
288 26-07-2016 23:00:00 17.15 C 92.5833 % 15.94 C
289 27-07-2016 00:00:00 16.63333 C 93.0000 % 15.5 C
290 27-07-2016 01:00:00 16.03333 C 93.6667 % 15.01 C
291 27-07-2016 02:00:00 16.08333 C 94.8333 % 15.25 C
292 27-07-2016 03:00:00 15.98333 C 95.0000 % 15.18 C
293 27-07-2016 04:00:00 15.775 C 95.2500 % 15.02 C
294 27-07-2016 05:00:00 15.76667 C 95.4167 % 15.04 C
295 27-07-2016 06:00:00 15.51667 C 95.6667 % 14.83 C
296 27-07-2016 07:00:00 15.94167 C 96.0000 % 15.3 C
297 27-07-2016 08:00:00 16.5 C 95.0000 % 15.7 C
298 27-07-2016 09:00:00 17.60833 C 91.7500 % 16.25 C
299 27-07-2016 10:00:00 18.90833 C 86.5833 % 16.62 C
300 27-07-2016 11:00:00 20.625 C 78.8333 % 16.82 C
Sensor: Nr:Datum:Temp:Feuchte:Taupunkt:
Aussen-T/F 301 27-07-2016 12:00:00 22.1 C 73.2500 % 17.09 C
302 27-07-2016 13:00:00 23.10833 C 67.7500 % 16.82 C
303 27-07-2016 14:00:00 23.83333 C 59.5000 % 15.47 C
304 27-07-2016 15:00:00 23.85 C 63.4167 % 16.48 C
305 27-07-2016 16:00:00 23.875 C 62.4167 % 16.26 C
306 27-07-2016 17:00:00 25.75833 C 57.2500 % 16.67 C
307 27-07-2016 18:00:00 25.1 C 59.4167 % 16.64 C
308 27-07-2016 19:00:00 22.81667 C 70.0833 % 17.08 C
309 27-07-2016 20:00:00 20.59167 C 77.0000 % 16.42 C
310 27-07-2016 21:00:00 20.00833 C 77.8333 % 16.02 C
311 27-07-2016 22:00:00 19.50833 C 82.2500 % 16.4 C
312 27-07-2016 23:00:00 19.19167 C 83.5833 % 16.34 C
313 28-07-2016 00:00:00 18.575 C 84.4167 % 15.9 C
314 28-07-2016 01:00:00 18.05 C 86.2500 % 15.72 C
315 28-07-2016 02:00:00 17.65833 C 87.8333 % 15.62 C
316 28-07-2016 03:00:00 17.55833 C 88.6667 % 15.67 C
317 28-07-2016 04:00:00 17.15 C 89.0000 % 15.32 C
318 28-07-2016 05:00:00 16.60833 C 90.0000 % 14.96 C
319 28-07-2016 06:00:00 16.43333 C 91.9167 % 15.12 C
320 28-07-2016 07:00:00 17.09167 C 92.7500 % 15.91 C
321 28-07-2016 08:00:00 18.45 C 88.8333 % 16.57 C
322 28-07-2016 09:00:00 20.05833 C 84.0833 % 17.29 C
323 28-07-2016 10:00:00 21.16667 C 80.0000 % 17.58 C
324 28-07-2016 11:00:00 21.85833 C 75.5833 % 17.35 C
325 28-07-2016 12:00:00 22.91667 C 71.4167 % 17.47 C
Sensor: Nr:Datum:Temp:Feuchte:Taupunkt:
Aussen-T/F 326 28-07-2016 13:00:00 23.475 C 68.4167 % 17.33 C
327 28-07-2016 14:00:00 24.30833 C 65.5000 % 17.43 C
328 28-07-2016 15:00:00 23.9 C 68.5000 % 17.75 C
329 28-07-2016 16:00:00 22.64167 C 78.5833 % 18.73 C
330 28-07-2016 17:00:00 23.05 C 81.4167 % 19.69 C
331 28-07-2016 18:00:00 23.14167 C 77.5000 % 18.99 C
332 28-07-2016 19:00:00 22.49167 C 80.0833 % 18.88 C
333 28-07-2016 20:00:00 21.24167 C 84.5000 % 18.52 C
334 28-07-2016 21:00:00 19.71667 C 88.2500 % 17.72 C
335 28-07-2016 22:00:00 18.825 C 91.0000 % 17.32 C
336 28-07-2016 23:00:00 18.475 C 92.6667 % 17.26 C
337 29-07-2016 00:00:00 18.26667 C 92.7500 % 17.07 C
338 29-07-2016 01:00:00 17.50833 C 92.0000 % 16.19 C
339 29-07-2016 02:00:00 16.39167 C 92.4167 % 15.16 C
340 29-07-2016 03:00:00 15.64167 C 93.5000 % 14.6 C
341 29-07-2016 04:00:00 16.23333 C 94.4167 % 15.34 C
342 29-07-2016 05:00:00 16.675 C 94.0000 % 15.7 C
343 29-07-2016 06:00:00 16.68333 C 94.1667 % 15.74 C
344 29-07-2016 07:00:00 17.03333 C 95.0000 % 16.23 C
345 29-07-2016 08:00:00 17.475 C 94.1667 % 16.53 C
346 29-07-2016 09:00:00 18.55 C 89.1667 % 16.73 C
347 29-07-2016 10:00:00 19.29167 C 87.8333 % 17.22 C
348 29-07-2016 11:00:00 19.58333 C 90.9167 % 18.06 C
349 29-07-2016 12:00:00 21.025 C 87.7500 % 18.91 C
350 29-07-2016 13:00:00 22.725 C 78.9167 % 18.88 C
Sensor: Nr:Datum:Temp:Feuchte:Taupunkt:
Aussen-T/F 351 29-07-2016 14:00:00 24.29167 C 70.8333 % 18.66 C
352 29-07-2016 15:00:00 23.725 C 72.2500 % 18.43 C
353 29-07-2016 16:00:00 24.16667 C 69.8333 % 18.31 C
354 29-07-2016 17:00:00 23.99167 C 71.1667 % 18.45 C
355 29-07-2016 18:00:00 23.95833 C 71.1667 % 18.41 C
356 29-07-2016 19:00:00 22.68333 C 75.3333 % 18.09 C
357 29-07-2016 20:00:00 22.08333 C 75.9167 % 17.64 C
358 29-07-2016 21:00:00 19.88333 C 83.4167 % 16.99 C
359 29-07-2016 22:00:00 18.85833 C 87.8333 % 16.8 C
360 29-07-2016 23:00:00 18.725 C 88.4167 % 16.77 C
361 30-07-2016 00:00:00 18.8 C 88.9167 % 16.93 C
362 30-07-2016 01:00:00 18.8 C 89.1667 % 16.98 C
363 30-07-2016 02:00:00 18.63333 C 90.4167 % 17.03 C
364 30-07-2016 03:00:00 18.14167 C 92.5833 % 16.92 C
365 30-07-2016 04:00:00 18.1 C 93.1667 % 16.98 C
366 30-07-2016 05:00:00 17.60833 C 93.0000 % 16.46 C
367 30-07-2016 06:00:00 17.23333 C 93.8333 % 16.23 C
368 30-07-2016 07:00:00 17.875 C 94.5000 % 16.98 C
369 30-07-2016 08:00:00 18.79167 C 90.9167 % 17.28 C
370 30-07-2016 09:00:00 19.875 C 84.8333 % 17.25 C
371 30-07-2016 10:00:00 20.99167 C 79.2500 % 17.26 C
372 30-07-2016 11:00:00 21.55 C 69.8333 % 15.81 C
373 30-07-2016 12:00:00 22.31667 C 64.2500 % 15.24 C
374 30-07-2016 13:00:00 22.925 C 62.7500 % 15.45 C
375 30-07-2016 14:00:00 23.55 C 62.5833 % 15.99 C
Sensor: Nr:Datum:Temp:Feuchte:Taupunkt:
Aussen-T/F 376 30-07-2016 15:00:00 23.8 C 65.3333 % 16.91 C
377 30-07-2016 16:00:00 24.73333 C 62.1667 % 17 C
378 30-07-2016 17:00:00 25.06667 C 57.5000 % 16.09 C
379 30-07-2016 18:00:00 24.025 C 63.2500 % 16.61 C
380 30-07-2016 19:00:00 23.34167 C 65.7500 % 16.57 C
381 30-07-2016 20:00:00 21.1 C 76.3333 % 16.77 C
382 30-07-2016 21:00:00 19.28333 C 80.9167 % 15.93 C
383 30-07-2016 22:00:00 18.63333 C 83.7500 % 15.83 C
384 30-07-2016 23:00:00 18.09167 C 84.5833 % 15.45 C
385 31-07-2016 00:00:00 17.425 C 88.2500 % 15.46 C
386 31-07-2016 01:00:00 16.6 C 89.9167 % 14.94 C
387 31-07-2016 02:00:00 16.375 C 91.9167 % 15.06 C
388 31-07-2016 03:00:00 16.08333 C 92.0833 % 14.8 C
389 31-07-2016 04:00:00 15.9 C 92.7500 % 14.73 C
390 31-07-2016 05:00:00 15.775 C 93.0000 % 14.65 C
391 31-07-2016 06:00:00 15.68333 C 93.8333 % 14.69 C
392 31-07-2016 07:00:00 16.3 C 93.6667 % 15.28 C
393 31-07-2016 08:00:00 17.375 C 90.2500 % 15.76 C
394 31-07-2016 09:00:00 19.04167 C 81.9167 % 15.88 C
395 31-07-2016 10:00:00 19.5 C 79.5833 % 15.88 C
396 31-07-2016 11:00:00 19.88333 C 76.4167 % 15.61 C
397 31-07-2016 12:00:00 20.68333 C 73.0000 % 15.67 C
398 31-07-2016 13:00:00 21.2 C 70.2500 % 15.57 C
399 31-07-2016 14:00:00 21.19167 C 68.1667 % 15.09 C
400 31-07-2016 15:00:00 18.43333 C 80.8333 % 15.08 C
Sensor: Nr:Datum:Temp:Feuchte:Taupunkt:
Aussen-T/F 401 31-07-2016 16:00:00 19.60833 C 70.0000 % 13.99 C
402 31-07-2016 17:00:00 19.81667 C 67.3333 % 13.59 C
403 31-07-2016 18:00:00 21.8 C 61.7500 % 14.14 C
404 31-07-2016 19:00:00 20.525 C 62.3333 % 13.08 C
405 31-07-2016 20:00:00 19.25833 C 68.0000 % 13.21 C
406 31-07-2016 21:00:00 16.79167 C 79.5833 % 13.24 C
407 31-07-2016 22:00:00 15.64167 C 85.0833 % 13.14 C
408 31-07-2016 23:00:00 14.575 C 88.1667 % 12.64 C
409 01-08-2016 00:00:00 13.81667 C 89.2500 % 12.08 C
410 01-08-2016 01:00:00 12.84167 C 90.7500 % 11.37 C
411 01-08-2016 02:00:00 12.34167 C 91.7500 % 11.04 C
412 01-08-2016 03:00:00 11.75833 C 92.5000 % 10.58 C
413 01-08-2016 04:00:00 11.10833 C 93.0833 % 10.03 C
414 01-08-2016 05:00:00 10.63333 C 94.0000 % 9.71 C
415 01-08-2016 06:00:00 10.45 C 94.5833 % 9.62 C
416 01-08-2016 07:00:00 10.55 C 95.0000 % 9.78 C
417 01-08-2016 08:00:00 11.125 C 95.3333 % 10.41 C
418 01-08-2016 09:00:00 12.59167 C 96.0000 % 11.97 C
419 01-08-2016 10:00:00 14.94167 C 92.1667 % 13.68 C
420 01-08-2016 11:00:00 18.64167 C 73.2500 % 13.76 C
421 01-08-2016 12:00:00 21.05 C 64.4167 % 14.08 C
422 01-08-2016 13:00:00 21 C 67.5833 % 14.77 C
423 01-08-2016 14:00:00 21.58333 C 62.6667 % 14.16 C
424 01-08-2016 15:00:00 20.76667 C 73.5833 % 15.88 C
425 01-08-2016 16:00:00 20.64167 C 76.4167 % 16.35 C
Sensor: Nr:Datum:Temp:Feuchte:Taupunkt:
Aussen-T/F 426 01-08-2016 17:00:00 24.10833 C 49.6667 % 12.94 C
427 01-08-2016 18:00:00 25.26667 C 47.7500 % 13.39 C
428 01-08-2016 19:00:00 23.88333 C 49.9167 % 12.81 C
429 01-08-2016 20:00:00 19.75 C 68.7500 % 13.85 C
430 01-08-2016 21:00:00 17.65 C 69.1667 % 11.93 C
431 01-08-2016 22:00:00 16.86667 C 75.7500 % 12.56 C
432 01-08-2016 23:00:00 15.98333 C 80.0833 % 12.55 C
433 02-08-2016 00:00:00 15.88333 C 81.0000 % 12.63 C
434 02-08-2016 01:00:00 15.85833 C 81.5000 % 12.7 C
435 02-08-2016 02:00:00 15.31667 C 83.4167 % 12.52 C
436 02-08-2016 03:00:00 15.24167 C 85.4167 % 12.81 C
437 02-08-2016 04:00:00 15.125 C 89.2500 % 13.37 C
438 02-08-2016 05:00:00 14.79167 C 92.7500 % 13.63 C
439 02-08-2016 06:00:00 14.6 C 93.5833 % 13.58 C
440 02-08-2016 07:00:00 14.81667 C 94.5000 % 13.94 C
441 02-08-2016 08:00:00 15.225 C 95.0000 % 14.43 C
442 02-08-2016 09:00:00 15.725 C 95.0000 % 14.93 C
443 02-08-2016 10:00:00 15.85 C 94.8333 % 15.02 C
444 02-08-2016 11:00:00 15.775 C 94.8333 % 14.95 C
445 02-08-2016 12:00:00 16.10833 C 94.9167 % 15.29 C
446 02-08-2016 13:00:00 16.46667 C 94.5833 % 15.59 C
447 02-08-2016 14:00:00 17.03333 C 94.5000 % 16.14 C
448 02-08-2016 15:00:00 17.33333 C 94.4167 % 16.43 C
449 02-08-2016 16:00:00 17.49167 C 94.0833 % 16.53 C
450 02-08-2016 17:00:00 17.49167 C 94.0833 % 16.53 C
Sensor: Nr:Datum:Temp:Feuchte:Taupunkt:
Aussen-T/F 451 02-08-2016 18:00:00 17.4 C 94.0833 % 16.44 C
452 02-08-2016 19:00:00 17.20833 C 93.8333 % 16.21 C
453 02-08-2016 20:00:00 17.1 C 93.6667 % 16.07 C
454 02-08-2016 21:00:00 16.84167 C 94.6667 % 15.98 C
455 02-08-2016 22:00:00 16.7 C 95.2500 % 15.94 C
456 02-08-2016 23:00:00 16.66667 C 96.0000 % 16.03 C
457 03-08-2016 00:00:00 16.63333 C 96.0000 % 15.99 C
458 03-08-2016 01:00:00 16.75833 C 95.5833 % 16.05 C
459 03-08-2016 02:00:00 17 C 95.3333 % 16.25 C
460 03-08-2016 03:00:00 17.21667 C 95.1667 % 16.44 C
461 03-08-2016 04:00:00 17.35833 C 95.5833 % 16.65 C
462 03-08-2016 05:00:00 17.64167 C 94.9167 % 16.82 C
463 03-08-2016 06:00:00 17.85 C 93.5000 % 16.79 C
464 03-08-2016 07:00:00 17.79167 C 94.5833 % 16.91 C
465 03-08-2016 08:00:00 17.875 C 94.9167 % 17.05 C
466 03-08-2016 09:00:00 18.61667 C 93.3333 % 17.52 C
467 03-08-2016 10:00:00 19.3 C 91.2500 % 17.84 C
468 03-08-2016 11:00:00 19.90833 C 90.9167 % 18.38 C
469 03-08-2016 12:00:00 19.875 C 91.8333 % 18.51 C
470 03-08-2016 13:00:00 19.475 C 91.5833 % 18.07 C
471 03-08-2016 14:00:00 19 C 93.7500 % 17.97 C
472 03-08-2016 15:00:00 19 C 94.8333 % 18.15 C
473 03-08-2016 16:00:00 19.70833 C 93.6667 % 18.66 C
474 03-08-2016 17:00:00 20.25 C 92.6667 % 19.02 C
475 03-08-2016 18:00:00 19.875 C 93.2500 % 18.75 C
Sensor: Nr:Datum:Temp:Feuchte:Taupunkt:
Aussen-T/F 476 03-08-2016 19:00:00 19.63333 C 94.0000 % 18.64 C
477 03-08-2016 20:00:00 19.14167 C 94.7500 % 18.28 C
478 03-08-2016 21:00:00 18.675 C 95.0000 % 17.86 C
479 03-08-2016 22:00:00 18.4 C 95.8333 % 17.72 C
480 03-08-2016 23:00:00 18.25833 C 96.0000 % 17.61 C
481 04-08-2016 00:00:00 18.1 C 96.0000 % 17.45 C
482 04-08-2016 01:00:00 17.94167 C 96.0000 % 17.29 C
483 04-08-2016 02:00:00 17.59167 C 96.1667 % 16.97 C
484 04-08-2016 03:00:00 17.03333 C 96.1667 % 16.42 C
485 04-08-2016 04:00:00 17.00833 C 97.0000 % 16.53 C
486 04-08-2016 05:00:00 17.11667 C 97.0000 % 16.64 C
487 04-08-2016 06:00:00 17.25 C 97.0000 % 16.77 C
488 04-08-2016 07:00:00 17.13333 C 97.0000 % 16.65 C
489 04-08-2016 08:00:00 17.10833 C 97.0000 % 16.63 C
490 04-08-2016 09:00:00 17.65833 C 97.0000 % 17.18 C
491 04-08-2016 10:00:00 18.475 C 97.0000 % 17.99 C
492 04-08-2016 11:00:00 19.15833 C 96.9167 % 18.66 C
493 04-08-2016 12:00:00 19.94167 C 93.8333 % 18.92 C
494 04-08-2016 13:00:00 20.6 C 90.8333 % 19.05 C
495 04-08-2016 14:00:00 20.44167 C 90.1667 % 18.77 C
496 04-08-2016 15:00:00 19.81667 C 91.6667 % 18.42 C
497 04-08-2016 16:00:00 19.81667 C 90.1667 % 18.16 C
498 04-08-2016 17:00:00 18.75833 C 92.1667 % 17.46 C
499 04-08-2016 18:00:00 18.41667 C 93.8333 % 17.41 C
500 04-08-2016 19:00:00 18.05833 C 93.3333 % 16.97 C
Sensor: Nr:Datum:Temp:Feuchte:Taupunkt:
Aussen-T/F 501 04-08-2016 20:00:00 17.39167 C 93.6667 % 16.36 C
502 04-08-2016 21:00:00 16.45833 C 93.8333 % 15.46 C
503 04-08-2016 22:00:00 15.79167 C 94.5000 % 14.91 C
504 04-08-2016 23:00:00 15.33333 C 95.0000 % 14.54 C
505 05-08-2016 00:00:00 14.93333 C 95.0000 % 14.14 C
506 05-08-2016 01:00:00 14.43333 C 95.5833 % 13.74 C
507 05-08-2016 02:00:00 14.15 C 95.8333 % 13.5 C
508 05-08-2016 03:00:00 13.79167 C 96.0000 % 13.17 C
509 05-08-2016 04:00:00 13.625 C 96.0000 % 13 C
510 05-08-2016 05:00:00 13.5 C 96.2500 % 12.91 C
511 05-08-2016 06:00:00 13.375 C 96.3333 % 12.8 C
512 05-08-2016 07:00:00 13.29167 C 96.8333 % 12.8 C
513 05-08-2016 08:00:00 13.74167 C 97.0000 % 13.27 C
514 05-08-2016 09:00:00 14.65833 C 95.5833 % 13.96 C
515 05-08-2016 10:00:00 16.71667 C 88.1667 % 14.75 C
516 05-08-2016 11:00:00 17.6 C 82.3333 % 14.55 C
517 05-08-2016 12:00:00 18.44167 C 80.4167 % 15.01 C
518 05-08-2016 13:00:00 19.68333 C 79.3333 % 16.01 C
519 05-08-2016 14:00:00 19.25 C 86.3333 % 16.91 C
520 05-08-2016 15:00:00 19.35 C 85.4167 % 16.84 C
521 05-08-2016 16:00:00 21.79167 C 76.7500 % 17.53 C
522 05-08-2016 17:00:00 21.1 C 78.0833 % 17.13 C
523 05-08-2016 18:00:00 19.79167 C 71.0000 % 14.38 C
524 05-08-2016 19:00:00 19.16667 C 78.1667 % 15.27 C
525 05-08-2016 20:00:00 17.90833 C 86.5833 % 15.64 C
Sensor: Nr:Datum:Temp:Feuchte:Taupunkt:
Aussen-T/F 526 05-08-2016 21:00:00 16.84167 C 88.2500 % 14.89 C
527 05-08-2016 22:00:00 15.85833 C 90.8333 % 14.36 C
528 05-08-2016 23:00:00 15.01667 C 93.0833 % 13.91 C
529 06-08-2016 00:00:00 14.525 C 94.2500 % 13.61 C
530 06-08-2016 01:00:00 14.34167 C 95.0833 % 13.57 C
531 06-08-2016 02:00:00 14.63333 C 95.9167 % 13.99 C
532 06-08-2016 03:00:00 14.79167 C 96.0000 % 14.16 C
533 06-08-2016 04:00:00 14.35 C 95.0000 % 13.56 C
534 06-08-2016 05:00:00 13.55833 C 95.1667 % 12.8 C
535 06-08-2016 06:00:00 13.24167 C 96.0000 % 12.62 C
536 06-08-2016 07:00:00 13.65833 C 96.3333 % 13.09 C
537 06-08-2016 08:00:00 14.54167 C 96.5833 % 14 C
538 06-08-2016 09:00:00 16 C 92.3333 % 14.76 C
539 06-08-2016 10:00:00 17.75833 C 83.2500 % 14.88 C
540 06-08-2016 11:00:00 19.06667 C 77.5000 % 15.04 C
541 06-08-2016 12:00:00 19.975 C 79.3333 % 16.29 C
542 06-08-2016 13:00:00 19.95833 C 81.3333 % 16.66 C
543 06-08-2016 14:00:00 20.8 C 81.5833 % 17.53 C
544 06-08-2016 15:00:00 20.89167 C 83.1667 % 17.93 C
545 06-08-2016 16:00:00 21.35 C 80.0833 % 17.77 C
546 06-08-2016 17:00:00 21.14167 C 81.0000 % 17.75 C
547 06-08-2016 18:00:00 23.025 C 69.9167 % 17.24 C
548 06-08-2016 19:00:00 22.59167 C 68.7500 % 16.56 C
549 06-08-2016 20:00:00 20.15833 C 76.5833 % 15.91 C
550 06-08-2016 21:00:00 18.275 C 83.7500 % 15.48 C
Sensor: Nr:Datum:Temp:Feuchte:Taupunkt:
Aussen-T/F 551 06-08-2016 22:00:00 17.1 C 86.6667 % 14.86 C
552 06-08-2016 23:00:00 16.45 C 87.8333 % 14.43 C
553 07-08-2016 00:00:00 15.35833 C 90.5000 % 13.81 C
554 07-08-2016 01:00:00 14.4 C 93.0833 % 13.3 C
555 07-08-2016 02:00:00 13.84167 C 94.0000 % 12.89 C
556 07-08-2016 03:00:00 13.41667 C 94.9167 % 12.62 C
557 07-08-2016 04:00:00 12.84167 C 95.0000 % 12.06 C
558 07-08-2016 05:00:00 12.35833 C 95.0000 % 11.58 C
559 07-08-2016 06:00:00 12.05833 C 95.5833 % 11.37 C
560 07-08-2016 07:00:00 12.775 C 96.0000 % 12.15 C
561 07-08-2016 08:00:00 13.3 C 96.0000 % 12.68 C
562 07-08-2016 09:00:00 13.96667 C 96.1667 % 13.37 C
563 07-08-2016 10:00:00 15.79167 C 96.0000 % 15.16 C
564 07-08-2016 11:00:00 19.18333 C 81.3333 % 15.91 C
565 07-08-2016 12:00:00 20.74167 C 75.0833 % 16.17 C
566 07-08-2016 13:00:00 22.08333 C 69.1667 % 16.17 C
567 07-08-2016 14:00:00 23.31667 C 65.3333 % 16.45 C
568 07-08-2016 15:00:00 24.86667 C 61.9167 % 17.07 C
569 07-08-2016 16:00:00 27.71667 C 56.5000 % 18.28 C
570 07-08-2016 17:00:00 28.71667 C 56.3333 % 19.16 C
571 07-08-2016 18:00:00 28.69167 C 58.9167 % 19.86 C
572 07-08-2016 19:00:00 26.925 C 65.4167 % 19.89 C
573 07-08-2016 20:00:00 23.24167 C 73.7500 % 18.29 C
574 07-08-2016 21:00:00 20.73333 C 79.1667 % 16.99 C
575 07-08-2016 22:00:00 19.33333 C 82.9167 % 16.36 C
Sensor: Nr:Datum:Temp:Feuchte:Taupunkt:
Aussen-T/F 576 07-08-2016 23:00:00 18.45833 C 86.2500 % 16.12 C
577 08-08-2016 00:00:00 17.64167 C 89.1667 % 15.84 C
578 08-08-2016 01:00:00 17.48333 C 90.1667 % 15.85 C
579 08-08-2016 02:00:00 17.85833 C 89.0000 % 16.02 C
580 08-08-2016 03:00:00 17.98333 C 88.0000 % 15.97 C
581 08-08-2016 04:00:00 17.13333 C 89.1667 % 15.33 C
582 08-08-2016 05:00:00 16.35833 C 91.1667 % 14.91 C
583 08-08-2016 06:00:00 16.35 C 92.8333 % 15.19 C
584 08-08-2016 07:00:00 17.14167 C 90.9167 % 15.65 C
585 08-08-2016 08:00:00 17.9 C 90.2500 % 16.28 C
586 08-08-2016 09:00:00 19.18333 C 84.8333 % 16.57 C
587 08-08-2016 10:00:00 20.24167 C 79.0833 % 16.5 C
588 08-08-2016 11:00:00 21.55 C 59.1667 % 13.24 C
589 08-08-2016 12:00:00 22.025 C 55.6667 % 12.76 C
590 08-08-2016 13:00:00 22.625 C 58.2500 % 14.01 C
591 08-08-2016 14:00:00 22.64167 C 63.8333 % 15.45 C
592 08-08-2016 15:00:00 22.8 C 62.5833 % 15.29 C
593 08-08-2016 16:00:00 24.60833 C 54.4167 % 14.8 C
594 08-08-2016 17:00:00 21.15 C 66.5000 % 14.67 C
595 08-08-2016 18:00:00 20.24167 C 69.4167 % 14.47 C
596 08-08-2016 19:00:00 19.75833 C 72.4167 % 14.66 C
597 08-08-2016 20:00:00 19.55833 C 72.7500 % 14.54 C
598 08-08-2016 21:00:00 17.09167 C 82.6667 % 14.12 C
599 08-08-2016 22:00:00 16.49167 C 86.0000 % 14.14 C
600 08-08-2016 23:00:00 16.30833 C 85.8333 % 13.93 C
Sensor: Nr:Datum:Temp:Feuchte:Taupunkt:
Aussen-T/F 601 09-08-2016 00:00:00 16.725 C 78.5833 % 12.99 C
602 09-08-2016 01:00:00 16.00833 C 80.3333 % 12.63 C
603 09-08-2016 02:00:00 14.95 C 82.6667 % 12.03 C
604 09-08-2016 03:00:00 14.55 C 84.7500 % 12.01 C
605 09-08-2016 04:00:00 14.4 C 85.2500 % 11.96 C
606 09-08-2016 05:00:00 14.25833 C 85.2500 % 11.82 C
607 09-08-2016 06:00:00 13.8 C 86.6667 % 11.62 C
608 09-08-2016 07:00:00 13.39167 C 88.2500 % 11.49 C
609 09-08-2016 08:00:00 14.13333 C 89.2500 % 12.39 C
610 09-08-2016 09:00:00 15.325 C 83.2500 % 12.5 C
611 09-08-2016 10:00:00 16.475 C 75.7500 % 12.18 C
612 09-08-2016 11:00:00 17.83333 C 66.3333 % 11.48 C
613 09-08-2016 12:00:00 18.575 C 60.9167 % 10.89 C
614 09-08-2016 13:00:00 19.25833 C 53.8333 % 9.68 C
615 09-08-2016 14:00:00 19.1 C 54.7500 % 9.79 C
616 09-08-2016 15:00:00 19.99167 C 53.0000 % 10.13 C
617 09-08-2016 16:00:00 21.55833 C 44.7500 % 9.05 C
618 09-08-2016 17:00:00 20.45833 C 53.3333 % 10.65 C
619 09-08-2016 18:00:00 17.75 C 63.1667 % 10.66 C
620 09-08-2016 19:00:00 17.15 C 61.8333 % 9.78 C
621 09-08-2016 20:00:00 16.525 C 65.0000 % 9.93 C
622 09-08-2016 21:00:00 14.60833 C 76.9167 % 10.61 C
623 09-08-2016 22:00:00 14.26667 C 77.7500 % 10.44 C
624 09-08-2016 23:00:00 13.225 C 82.0833 % 10.24 C
625 10-08-2016 00:00:00 12.16667 C 85.5000 % 9.81 C
Sensor: Nr:Datum:Temp:Feuchte:Taupunkt:
Aussen-T/F 626 10-08-2016 01:00:00 11.4 C 86.5000 % 9.23 C
627 10-08-2016 02:00:00 10.36667 C 89.1667 % 8.66 C
628 10-08-2016 03:00:00 9.88333 C 91.1667 % 8.51 C
629 10-08-2016 04:00:00 10.15833 C 92.8333 % 9.05 C
630 10-08-2016 05:00:00 10.39167 C 92.1667 % 9.18 C
631 10-08-2016 06:00:00 10.31667 C 92.4167 % 9.14 C
632 10-08-2016 07:00:00 10.58333 C 93.0000 % 9.5 C
633 10-08-2016 08:00:00 11.46667 C 91.0000 % 10.05 C
634 10-08-2016 09:00:00 13.05 C 85.8333 % 10.74 C
635 10-08-2016 10:00:00 12.63333 C 84.6667 % 10.12 C
636 10-08-2016 11:00:00 11.64167 C 90.9167 % 10.21 C
637 10-08-2016 12:00:00 12.90833 C 87.6667 % 10.91 C
638 10-08-2016 13:00:00 14.325 C 78.2500 % 10.59 C
639 10-08-2016 14:00:00 15.45 C 71.0000 % 10.22 C
640 10-08-2016 15:00:00 16.58333 C 65.0000 % 9.98 C
641 10-08-2016 16:00:00 17.99167 C 58.4167 % 9.72 C
642 10-08-2016 17:00:00 18.80833 C 49.4167 % 8 C
643 10-08-2016 18:00:00 17.6 C 56.0000 % 8.73 C
644 10-08-2016 19:00:00 15.95 C 64.0833 % 9.17 C
645 10-08-2016 20:00:00 14.6 C 70.5833 % 9.32 C
646 10-08-2016 21:00:00 12.91667 C 76.3333 % 8.86 C
647 10-08-2016 22:00:00 11.23333 C 82.3333 % 8.34 C
648 10-08-2016 23:00:00 10.16667 C 86.3333 % 7.99 C
649 11-08-2016 00:00:00 9.15833 C 89.4167 % 7.51 C
650 11-08-2016 01:00:00 8.475 C 91.5000 % 7.17 C
Sensor: Nr:Datum:Temp:Feuchte:Taupunkt:
Aussen-T/F 651 11-08-2016 02:00:00 8.175 C 92.9167 % 7.1 C
652 11-08-2016 03:00:00 7.86667 C 93.4167 % 6.87 C
653 11-08-2016 04:00:00 7.41667 C 94.0000 % 6.52 C
654 11-08-2016 05:00:00 7.075 C 94.1667 % 6.2 C
655 11-08-2016 06:00:00 6.9 C 95.0000 % 6.16 C
656 11-08-2016 07:00:00 7.16667 C 95.2500 % 6.46 C
657 11-08-2016 08:00:00 8.725 C 95.7500 % 8.09 C
658 11-08-2016 09:00:00 10.54167 C 91.8333 % 9.27 C
659 11-08-2016 10:00:00 12.49167 C 85.5000 % 10.13 C
660 11-08-2016 11:00:00 14.58333 C 72.2500 % 9.65 C
661 11-08-2016 12:00:00 16.14167 C 61.7500 % 8.8 C
662 11-08-2016 13:00:00 17.40833 C 62.0833 % 10.08 C
663 11-08-2016 14:00:00 17.95833 C 60.5833 % 10.23 C
664 11-08-2016 15:00:00 18.3 C 58.7500 % 10.09 C
665 11-08-2016 16:00:00 18.34167 C 60.0000 % 10.45 C
666 11-08-2016 17:00:00 17.36667 C 65.0000 % 10.73 C
667 11-08-2016 18:00:00 15.50833 C 82.4167 % 12.53 C
668 11-08-2016 19:00:00 13.76667 C 90.0000 % 12.16 C
669 11-08-2016 20:00:00 13.08333 C 92.3333 % 11.87 C
670 11-08-2016 21:00:00 12.8 C 93.0833 % 11.71 C
671 11-08-2016 22:00:00 12.89167 C 93.9167 % 11.94 C
672 11-08-2016 23:00:00 13.05833 C 94.0833 % 12.13 C
673 12-08-2016 00:00:00 13.25833 C 94.8333 % 12.45 C
674 12-08-2016 01:00:00 13.39167 C 94.8333 % 12.58 C
675 12-08-2016 02:00:00 13.51667 C 95.0000 % 12.73 C
Sensor: Nr:Datum:Temp:Feuchte:Taupunkt:
Aussen-T/F 676 12-08-2016 03:00:00 13.63333 C 95.0000 % 12.85 C
677 12-08-2016 04:00:00 13.775 C 95.0000 % 12.99 C
678 12-08-2016 05:00:00 14.06667 C 94.6667 % 13.22 C
679 12-08-2016 06:00:00 14.25833 C 94.0833 % 13.32 C
680 12-08-2016 07:00:00 14.575 C 94.0000 % 13.62 C
681 12-08-2016 08:00:00 15.01667 C 94.0000 % 14.06 C
682 12-08-2016 09:00:00 15.60833 C 93.6667 % 14.59 C
683 12-08-2016 10:00:00 16.325 C 92.8333 % 15.16 C
684 12-08-2016 11:00:00 17.60833 C 91.0000 % 16.12 C
685 12-08-2016 12:00:00 19.40833 C 86.7500 % 17.14 C
686 12-08-2016 13:00:00 20.3 C 84.7500 % 17.65 C
687 12-08-2016 14:00:00 21.20833 C 83.0833 % 18.22 C
688 12-08-2016 15:00:00 20.54167 C 87.9167 % 18.47 C
689 12-08-2016 16:00:00 22.025 C 82.8333 % 18.97 C
690 12-08-2016 17:00:00 21.98333 C 83.7500 % 19.11 C
691 12-08-2016 18:00:00 20.28333 C 88.4167 % 18.31 C
692 12-08-2016 19:00:00 19.85833 C 90.0000 % 18.17 C
693 12-08-2016 20:00:00 19.325 C 90.3333 % 17.7 C
694 12-08-2016 21:00:00 18.6 C 91.5000 % 17.19 C
695 12-08-2016 22:00:00 18.5 C 91.4167 % 17.08 C
696 12-08-2016 23:00:00 18.54167 C 90.1667 % 16.9 C
697 13-08-2016 00:00:00 18.31667 C 90.0833 % 16.66 C
698 13-08-2016 01:00:00 17.74167 C 91.4167 % 16.33 C
699 13-08-2016 02:00:00 17.20833 C 92.3333 % 15.95 C
700 13-08-2016 03:00:00 16.49167 C 92.9167 % 15.34 C
Sensor: Nr:Datum:Temp:Feuchte:Taupunkt:
Aussen-T/F 701 13-08-2016 04:00:00 15.66667 C 93.9167 % 14.69 C
702 13-08-2016 05:00:00 14.98333 C 94.5833 % 14.12 C
703 13-08-2016 06:00:00 14.66667 C 95.0000 % 13.87 C
704 13-08-2016 07:00:00 14.58333 C 95.5833 % 13.89 C
705 13-08-2016 08:00:00 15.38333 C 96.0000 % 14.75 C
706 13-08-2016 09:00:00 16.69167 C 95.0000 % 15.89 C
707 13-08-2016 10:00:00 19.175 C 87.6667 % 17.08 C
708 13-08-2016 11:00:00 21.71667 C 79.6667 % 18.05 C
709 13-08-2016 12:00:00 22.69167 C 75.8333 % 18.21 C
710 13-08-2016 13:00:00 23.55833 C 72.1667 % 18.25 C
711 13-08-2016 14:00:00 24.80833 C 67.2500 % 18.32 C
712 13-08-2016 15:00:00 26.13333 C 59.0000 % 17.49 C
713 13-08-2016 16:00:00 28.63333 C 46.1667 % 15.93 C
714 13-08-2016 17:00:00 29.83333 C 43.9167 % 16.23 C
715 13-08-2016 18:00:00 29.64167 C 40.5833 % 14.83 C
716 13-08-2016 19:00:00 26.73333 C 51.0000 % 15.75 C
717 13-08-2016 20:00:00 23.41667 C 68.0833 % 17.19 C
718 13-08-2016 21:00:00 20.30833 C 80.0833 % 16.76 C
719 13-08-2016 22:00:00 18.825 C 85.0833 % 16.26 C
720 13-08-2016 23:00:00 17.81667 C 87.5833 % 15.73 C
721 14-08-2016 00:00:00 16.54167 C 90.5833 % 15 C
722 14-08-2016 01:00:00 15.65 C 92.1667 % 14.38 C
723 14-08-2016 02:00:00 15.08333 C 93.1667 % 13.99 C
724 14-08-2016 03:00:00 14.58333 C 94.0000 % 13.63 C
725 14-08-2016 04:00:00 14.08333 C 94.6667 % 13.24 C
Sensor: Nr:Datum:Temp:Feuchte:Taupunkt:
Aussen-T/F 726 14-08-2016 05:00:00 13.9 C 95.0833 % 13.13 C
727 14-08-2016 06:00:00 13.575 C 95.2500 % 12.83 C
728 14-08-2016 07:00:00 14.03333 C 96.0000 % 13.41 C
729 14-08-2016 08:00:00 14.48333 C 96.0000 % 13.85 C
730 14-08-2016 09:00:00 15.3 C 96.0000 % 14.67 C
731 14-08-2016 10:00:00 16.95833 C 94.3333 % 16.04 C
732 14-08-2016 11:00:00 18.85833 C 90.4167 % 17.26 C
733 14-08-2016 12:00:00 21.15 C 79.0000 % 17.36 C
734 14-08-2016 13:00:00 22.61667 C 73.2500 % 17.58 C
735 14-08-2016 14:00:00 23.79167 C 66.4167 % 17.16 C
736 14-08-2016 15:00:00 24.63333 C 62.8333 % 17.08 C
737 14-08-2016 16:00:00 26.125 C 56.2500 % 16.73 C
738 14-08-2016 17:00:00 26.24167 C 53.1667 % 15.95 C
739 14-08-2016 18:00:00 25.775 C 52.1667 % 15.23 C
740 14-08-2016 19:00:00 24.31667 C 57.4167 % 15.37 C
741 14-08-2016 20:00:00 23.31667 C 62.0833 % 15.65 C
742 14-08-2016 21:00:00 20.94167 C 73.2500 % 15.97 C
743 14-08-2016 22:00:00 18.55833 C 82.5833 % 15.54 C
744 14-08-2016 23:00:00 17.625 C 86.2500 % 15.3 C

Maximal/Minimal-Werte vom 15.07.2016 - 14.08.2016

Sensor Min Max Avg
Temp
(Aussen-T/F)
6.8 °C
11-08-2016  06:55:00
35.4 °C
20-07-2016  17:10:00
18.93 °C
Feuchte
(Aussen-T/F)
35 %
13-08-2016  18:30:00
97 %
22-07-2016  02:10:00
83.03 %
Taupunkt
(Aussen-T/F)
6.16 C
11-08-2016  06:00:00
23.19 C
20-07-2016  17:00:00
15.7 C

Die Daten stammen von einer Davis Vantage Pro 2 Wetter-Station und werden unter Linux mit der Software wview2wettercgi und aufbereitet. Alle Angaben erfolgen ohne Gewähr für ihre Vollständigkeit oder Richtigkeit.
Kontakt: Rainer Krienke krienke@uni-koblenz.de . Meine Webseiten an der Uni Koblenz oder privat.
Version: $Revision: 0.78 $